Bejelentkezés
MINDENAUTO.HU

MINDEN
AUTÓ

autó

Info

MINDENAUTO.HU
/20200730-Ittas-sofor-8-eves-fia-serult-meg-egy-balesetben-Index-hu

Ittas sofőr 8 éves fia sérült meg egy balesetben - Index.hu

Ittas sofőr 8 éves fia sérült meg egy balesetben - Index.hu Magyarországi új és használt járművek képes listája, ingyenes autó hirdetési lehetőség. Autó apróhirdetés. Járművek, autók, motorok, tehergépjárművek. Eladó Suzuki, Opel, Fiat, Mercedes, BMW, Audi, Nissan. Új és használtan importált kedvezményes áru autók. Autólízing, hitelnyújtás. Használtautó hu, minden eladó jármű hirdetések, hirdetésfeladás. Járműadatbázis, motor, haszongépjármű, busz, terepjáró és teherautó kínálat is.

Legújabb twittek

@yudha_first Auto nyanyi le moco arab 😂

@OSH94KJI ASEK AUTO MASUK BOOKMARK MET

Új fejezet a Schiller Autó Család történetében: megkezdik egy presztízsmárka forgalmazását egy hatalmas, többfunkci… https://t.co/TwKxjSjk9C

@peachvoyez @B_hundred_Hyun Auto nyanyi🤡

Több mint 3 millió lej értékű féldrágakövet találtak az üldözött autó csomagtartójában https://t.co/hwYGK4bzV5 https://t.co/KE7BUJ0ngW

Auto. 2014.06,20 Seungyoon for GQ Korea https://t.co/7kSZOyFhKs

Az autó beindításához három szükséges alkatrésznek kell hibátlanul működnie, ezek nem mások, mint a generátor, az a… https://t.co/NTeX5xIlkw

@bauxitfozelek Szombathelyen az oktatóm, meg néhány helybeli csoporttársam mondta hogy "fordítsd be az autó ORÁT",… https://t.co/p2aylZVkWZ

EGKR 282150Z AUTO 25006KT 9999 NCD 07/06 Q1007=

Hogy melyik parkoló autó működik csak elektromosan, és melyik hibrid gépjármű, azt a parkoló örök tudni fogják....… https://t.co/EsSmMhBAGG

Gyere, támadjál, utánam jött a Vászonfehérítő utcárs!!!!!!!!!!!!!! A Café Molinari autója, 2018, Tesco, 10 alkalom… https://t.co/nC3hCjJKsL

EGKR 282050Z AUTO 25006KT 9999 NCD 08/06 Q1006=

Kedves Twitter-pajtik! Nem tudom, rajtam kívül van-e még valakinek 2003-as gyártmányú Renault Clio-ja, és tapasztal… https://t.co/Enzyl8VgUp

RT @euronewshu: Zöld utat kapott az Unióban a repülő autó https://t.co/GzxcQLcvIR

EGKR 281950Z AUTO 25005KT 9999 NCD 09/07 Q1005=

Zöld utat kapott az Unióban a repülő autó https://t.co/GzxcQLcvIR

Egy átlagos autót naponta átlagosan 2-3 alkalommal indítunk be. Két választásunk van ebben az esetben: Az AGM és az… https://t.co/i2sADYsPwm

Az apró jármű olyan kicsi, hogy egy emberi hajszálban is elférne. https://t.co/EdobyGw07m

Az autóápolás nem csak a kiállításra szánt autóknál játszik nagy szerepet. Minden autótulajdonos számára fontos dol… https://t.co/1BC3lOqqrU

A megfelelő töltőinfrastruktúra kiépítése legalább olyan fontos, mint maga a jármű. https://t.co/yu9PFgjyW5

Nyomtávváltó szupervonat Kínából https://t.co/2fUJLn9jR7 Peking és Moszkva között óránként négyszáz kilométeres seb… https://t.co/N6nK6Dhogb

@heydorka @Utazz A vétkes jármű jelenleg is akadályt képez. Maradjon ott, és áttelepítem a töltőt. 😈🤷‍♂️

Megjelent egy újabb hír a neten, ami azért sok embert egyből lázba hozott. Az új Halálos Iramban című film 9. része… https://t.co/pZUmYHlDYU

Ti felhasználtátok már a megítélt támogatást? https://t.co/H3nHVxLZQV

Kétezer elektromos jármű megvásárlásának támogatásáról született már döntés https://t.co/iDQwghCByJ Tőle: @ecarshu

ITM: csaknem kétezer elektromos jármű megvásárlásának támogatásáról született már döntés https://t.co/hEPDq0onTp

Keresés
Ittas sofőr 8 éves fia sérült meg egy balesetben  Index.hu